createdAt,value
2022-09-04T00:02:20.807Z,5.80
2022-09-04T00:05:17.243Z,6.05
2022-09-04T00:08:07.380Z,5.43
2022-09-04T00:10:39.933Z,5.45
2022-09-04T00:13:15.313Z,5.72
2022-09-04T00:15:52.541Z,5.72
2022-09-04T00:18:49.831Z,6.45
2022-09-04T00:21:21.727Z,5.80
2022-09-04T00:23:54.138Z,6.32
2022-09-04T00:26:44.885Z,6.07
2022-09-04T00:29:21.543Z,5.95
2022-09-04T00:32:13.836Z,5.88
2022-09-04T00:34:46.870Z,5.50
2022-09-04T00:37:18.453Z,6.00
2022-09-04T00:39:50.996Z,5.65
2022-09-04T00:42:53.699Z,6.18
2022-09-04T00:45:28.060Z,6.10
2022-09-04T00:48:22.597Z,6.22
2022-09-04T00:51:01.102Z,6.00
2022-09-04T00:53:46.169Z,5.50
2022-09-04T00:59:40.054Z,5.45
2022-09-04T01:02:21.481Z,6.65
2022-09-04T01:05:24.588Z,6.00
2022-09-04T01:08:16.439Z,6.15
2022-09-04T01:11:23.767Z,6.28
2022-09-04T01:13:52.336Z,6.70
2022-09-04T01:16:39.561Z,6.97
2022-09-04T01:19:23.685Z,6.68
2022-09-04T01:22:08.676Z,6.00
2022-09-04T01:25:03.343Z,6.65
2022-09-04T01:27:50.787Z,6.30
2022-09-04T01:30:20.296Z,6.70
2022-09-04T01:33:27.384Z,5.90
2022-09-04T01:36:07.323Z,5.80
2022-09-04T01:38:40.780Z,6.00
2022-09-04T01:41:20.571Z,6.35
2022-09-04T01:43:48.180Z,6.57
2022-09-04T01:46:26.699Z,6.25
2022-09-04T01:49:14.963Z,6.32
2022-09-04T01:52:05.416Z,5.90
2022-09-04T01:55:04.024Z,6.15
2022-09-04T01:57:49.409Z,6.18
2022-09-04T02:00:20.301Z,5.75
2022-09-04T02:02:58.119Z,6.03
2022-09-04T02:05:28.615Z,6.10
2022-09-04T02:08:00.190Z,6.57
2022-09-04T02:10:36.334Z,6.22
2022-09-04T02:13:29.454Z,6.22
2022-09-04T02:16:02.155Z,6.55
2022-09-04T02:18:50.359Z,6.90
2022-09-04T02:21:24.236Z,6.90
2022-09-04T02:24:11.266Z,6.67
2022-09-04T02:27:05.537Z,6.50
2022-09-04T02:29:36.274Z,6.40
2022-09-04T02:32:18.727Z,6.80
2022-09-04T02:34:52.900Z,6.72
2022-09-04T02:37:27.548Z,6.80
2022-09-04T02:40:00.926Z,6.75
2022-09-04T02:42:54.323Z,6.70
2022-09-04T02:45:46.237Z,6.22
2022-09-04T02:48:35.306Z,6.50
2022-09-04T02:51:29.258Z,6.20
2022-09-04T02:54:25.679Z,6.45
2022-09-04T02:57:20.072Z,6.50
2022-09-04T03:00:05.081Z,6.10
2022-09-04T03:05:29.443Z,6.70
2022-09-04T03:08:00.500Z,7.03
2022-09-04T03:10:39.323Z,6.78
2022-09-04T03:13:34.925Z,6.35
2022-09-04T03:16:41.798Z,6.05
2022-09-04T03:19:36.407Z,6.20
2022-09-04T03:22:16.475Z,6.60
2022-09-04T03:25:06.079Z,6.60
2022-09-04T03:27:34.677Z,6.03
2022-09-04T03:30:09.822Z,6.40
2022-09-04T03:32:37.971Z,5.88
2022-09-04T03:35:16.896Z,6.07
2022-09-04T03:38:24.093Z,6.07
2022-09-04T03:40:51.375Z,6.00
2022-09-04T03:43:18.625Z,7.22
2022-09-04T03:46:19.808Z,6.20
2022-09-04T03:48:58.242Z,6.75
2022-09-04T03:51:38.330Z,7.00
2022-09-04T03:54:33.660Z,6.85
2022-09-04T03:59:59.674Z,6.25
2022-09-04T04:02:55.536Z,6.15
2022-09-04T04:05:25.944Z,6.78
2022-09-04T04:08:12.910Z,6.13
2022-09-04T04:11:00.498Z,6.88
2022-09-04T04:13:47.443Z,6.15
2022-09-04T04:16:41.927Z,6.50
2022-09-04T04:19:26.095Z,6.00
2022-09-04T04:22:15.321Z,6.63
2022-09-04T04:25:01.484Z,6.47
2022-09-04T04:27:47.525Z,6.32
2022-09-04T04:30:17.804Z,6.32
2022-09-04T04:33:08.473Z,6.30
2022-09-04T04:35:49.803Z,5.82
2022-09-04T04:38:19.082Z,6.57
2022-09-04T04:40:49.478Z,6.65
2022-09-04T04:43:18.683Z,6.22
2022-09-04T04:46:12.385Z,5.97
2022-09-04T04:49:19.341Z,6.28
2022-09-04T04:52:07.391Z,6.28
2022-09-04T04:54:53.163Z,6.07
2022-09-04T04:57:40.608Z,5.93
2022-09-04T05:00:22.856Z,5.90
2022-09-04T05:03:19.855Z,6.25
2022-09-04T05:06:01.182Z,6.00
2022-09-04T05:08:35.967Z,5.53
2022-09-04T05:11:16.992Z,5.95
2022-09-04T05:14:19.626Z,6.25
2022-09-04T05:16:55.828Z,6.40
2022-09-04T05:20:03.040Z,6.38
2022-09-04T05:22:38.492Z,6.40
2022-09-04T05:25:19.483Z,5.97
2022-09-04T05:28:18.271Z,5.88
2022-09-04T05:31:19.778Z,5.82
2022-09-04T05:34:10.169Z,6.15
2022-09-04T05:37:05.680Z,6.57
2022-09-04T05:39:39.209Z,6.38
2022-09-04T05:42:34.586Z,6.22
2022-09-04T05:45:24.861Z,5.90
2022-09-04T05:47:59.768Z,5.97
2022-09-04T05:50:54.066Z,6.22
2022-09-04T05:53:43.517Z,6.65
2022-09-04T05:56:38.171Z,5.65
2022-09-04T05:59:36.639Z,5.65
2022-09-04T06:02:07.208Z,6.22
2022-09-04T06:04:35.613Z,7.05
2022-09-04T06:07:13.332Z,6.75
2022-09-04T06:10:03.461Z,6.55
2022-09-04T06:13:06.789Z,6.25
2022-09-04T06:15:54.886Z,6.30
2022-09-04T06:18:49.557Z,5.80
2022-09-04T06:21:45.772Z,5.20
2022-09-04T06:24:33.805Z,4.45
2022-09-04T06:27:08.675Z,3.80
2022-09-04T06:29:43.165Z,3.78
2022-09-04T06:32:18.392Z,3.78
2022-09-04T06:35:10.242Z,3.38
2022-09-04T06:37:39.585Z,3.40
2022-09-04T06:40:26.757Z,3.47
2022-09-04T06:43:08.400Z,3.20
2022-09-04T06:46:02.296Z,3.40
2022-09-04T06:48:52.836Z,3.50
2022-09-04T06:51:40.034Z,3.40
2022-09-04T06:54:38.021Z,3.35
2022-09-04T06:57:14.865Z,3.53
2022-09-04T06:59:43.050Z,3.40
2022-09-04T07:02:40.201Z,3.63
2022-09-04T07:05:10.098Z,3.35
2022-09-04T07:07:44.608Z,3.08
2022-09-04T07:10:18.307Z,3.45
2022-09-04T07:13:25.233Z,3.67
2022-09-04T07:16:15.669Z,3.00
2022-09-04T07:18:59.013Z,3.40
2022-09-04T07:21:48.720Z,2.92
2022-09-04T07:24:51.450Z,2.70
2022-09-04T07:27:38.688Z,2.97
2022-09-04T07:30:09.449Z,2.90
2022-09-04T07:32:42.838Z,3.92
2022-09-04T07:35:25.535Z,3.10
2022-09-04T07:38:07.665Z,3.05
2022-09-04T07:40:40.874Z,3.00
2022-09-04T07:43:21.517Z,3.10
2022-09-04T07:46:04.406Z,2.70
2022-09-04T07:48:43.961Z,2.60
2022-09-04T07:51:15.812Z,2.50
2022-09-04T07:54:06.429Z,2.93
2022-09-04T07:57:06.104Z,2.90
2022-09-04T07:59:48.690Z,2.78
2022-09-04T08:02:47.889Z,2.75
2022-09-04T08:05:20.764Z,2.80
2022-09-04T08:11:00.662Z,3.35
2022-09-04T08:13:55.407Z,2.90
2022-09-04T08:16:28.849Z,7.50
2022-09-04T08:19:24.046Z,2.92
2022-09-04T08:21:53.960Z,2.70
2022-09-04T08:24:54.631Z,2.50
2022-09-04T08:27:44.414Z,2.60
2022-09-04T08:30:14.818Z,2.80
2022-09-04T08:33:01.857Z,2.72
2022-09-04T08:35:37.568Z,2.47
2022-09-04T08:38:09.110Z,2.97
2022-09-04T08:41:07.058Z,2.58
2022-09-04T08:43:40.867Z,2.92
2022-09-04T08:46:15.500Z,2.67
2022-09-04T08:48:42.677Z,3.05
2022-09-04T08:51:29.786Z,3.03
2022-09-04T08:54:06.532Z,3.30
2022-09-04T08:57:00.950Z,3.20
2022-09-04T08:59:43.624Z,3.17
2022-09-04T09:02:18.352Z,3.20
2022-09-04T09:05:06.685Z,3.42
2022-09-04T09:07:44.135Z,4.80
2022-09-04T09:10:45.049Z,3.40
2022-09-04T09:13:32.224Z,3.60
2022-09-04T09:16:35.592Z,3.17
2022-09-04T09:19:37.612Z,2.72
2022-09-04T09:22:09.276Z,3.00
2022-09-04T09:24:37.486Z,3.13
2022-09-04T09:27:31.883Z,3.63
2022-09-04T09:30:12.031Z,3.45
2022-09-04T09:32:59.314Z,3.28
2022-09-04T09:35:53.487Z,2.85
2022-09-04T09:38:20.556Z,2.70
2022-09-04T09:41:13.456Z,3.17
2022-09-04T09:44:20.480Z,2.65
2022-09-04T09:47:07.744Z,2.72
2022-09-04T09:49:55.788Z,3.05
2022-09-04T09:52:39.991Z,2.97
2022-09-04T09:55:20.303Z,2.95
2022-09-04T09:57:51.775Z,2.83
2022-09-04T10:00:23.067Z,2.50
2022-09-04T10:03:17.892Z,3.20
2022-09-04T10:08:36.561Z,3.20
2022-09-04T10:11:10.009Z,2.92
2022-09-04T10:14:09.214Z,2.97
2022-09-04T10:16:40.306Z,2.75
2022-09-04T10:19:31.042Z,2.63
2022-09-04T10:22:25.443Z,2.58
2022-09-04T10:25:32.331Z,2.85
2022-09-04T10:28:22.893Z,2.92
2022-09-04T10:31:19.262Z,2.58
2022-09-04T10:34:05.819Z,2.50
2022-09-04T10:36:49.450Z,2.30
2022-09-04T10:39:39.167Z,2.88
2022-09-04T10:42:10.322Z,2.80
2022-09-04T10:44:45.691Z,2.47
2022-09-04T10:47:36.226Z,2.58
2022-09-04T10:50:03.480Z,2.88
2022-09-04T10:53:10.609Z,2.75
2022-09-04T10:56:11.573Z,3.25
2022-09-04T10:58:45.582Z,2.53
2022-09-04T11:01:34.181Z,2.65
2022-09-04T11:04:41.430Z,2.35
2022-09-04T11:07:10.203Z,2.58
2022-09-04T11:09:44.968Z,2.58
2022-09-04T11:12:33.556Z,2.65
2022-09-04T11:15:19.683Z,2.47
2022-09-04T11:18:14.088Z,2.50
2022-09-04T11:21:01.121Z,2.38
2022-09-04T11:23:51.550Z,2.30
2022-09-04T11:26:42.786Z,2.47
2022-09-04T11:29:31.222Z,2.50
2022-09-04T11:32:38.098Z,2.58
2022-09-04T11:35:06.922Z,2.58
2022-09-04T11:38:10.594Z,2.22
2022-09-04T11:40:58.967Z,2.22
2022-09-04T11:43:47.431Z,2.00
2022-09-04T11:46:36.274Z,2.25
2022-09-04T11:49:13.464Z,2.10
2022-09-04T11:52:00.516Z,2.60
2022-09-04T11:55:10.468Z,2.80
2022-09-04T11:58:11.350Z,3.10
2022-09-04T12:01:16.396Z,2.72
2022-09-04T12:03:43.697Z,2.10
2022-09-04T12:06:27.020Z,2.33
2022-09-04T12:09:33.899Z,2.60
2022-09-04T12:12:28.076Z,5.18
2022-09-04T12:14:55.212Z,2.72
2022-09-04T12:17:51.738Z,2.50
2022-09-04T12:20:38.690Z,5.63
2022-09-04T12:23:33.277Z,3.40
2022-09-04T12:28:48.866Z,2.67
2022-09-04T12:31:34.688Z,2.22
2022-09-04T12:34:23.278Z,2.55
2022-09-04T12:37:11.611Z,2.40
2022-09-04T12:40:06.845Z,2.13
2022-09-04T12:42:54.912Z,2.40
2022-09-04T12:45:35.337Z,1.98
2022-09-04T12:48:08.565Z,2.08
2022-09-04T12:50:35.812Z,2.40
2022-09-04T12:53:26.049Z,2.40
2022-09-04T12:55:56.478Z,2.10
2022-09-04T12:58:33.489Z,2.42
2022-09-04T13:01:20.561Z,2.70
2022-09-04T13:04:11.790Z,2.47
2022-09-04T13:06:48.234Z,2.20
2022-09-04T13:09:31.179Z,2.70
2022-09-04T13:12:03.484Z,2.50
2022-09-04T13:14:44.646Z,2.22
2022-09-04T13:17:32.814Z,2.40
2022-09-04T13:20:15.165Z,2.20
2022-09-04T13:23:26.821Z,2.20
2022-09-04T13:26:04.275Z,2.10
2022-09-04T13:28:35.759Z,2.70
2022-09-04T13:31:27.068Z,2.80
2022-09-04T13:33:57.706Z,2.30
2022-09-04T13:36:32.275Z,2.72
2022-09-04T13:39:10.734Z,2.00
2022-09-04T13:42:05.326Z,2.55
2022-09-04T13:47:15.782Z,2.70
2022-09-04T13:50:11.211Z,2.30
2022-09-04T13:52:52.190Z,2.63
2022-09-04T13:55:24.423Z,2.35
2022-09-04T13:58:14.191Z,2.47
2022-09-04T14:00:49.569Z,2.42
2022-09-04T14:03:43.205Z,2.40
2022-09-04T14:06:14.989Z,2.50
2022-09-04T14:08:45.845Z,2.65
2022-09-04T14:11:47.129Z,2.20
2022-09-04T14:14:37.625Z,2.00
2022-09-04T14:17:07.253Z,2.22
2022-09-04T14:20:02.070Z,2.30
2022-09-04T14:22:59.861Z,2.78
2022-09-04T14:25:33.889Z,2.38
2022-09-04T14:30:37.325Z,2.63
2022-09-04T14:33:28.415Z,3.30
2022-09-04T14:36:16.439Z,2.60
2022-09-04T14:38:44.646Z,2.03
2022-09-04T14:41:36.495Z,2.22
2022-09-04T14:44:30.974Z,3.72
2022-09-04T14:47:12.212Z,3.70
2022-09-04T14:49:47.019Z,4.43
2022-09-04T14:52:19.827Z,4.60
2022-09-04T14:54:52.003Z,4.97
2022-09-04T14:57:34.793Z,4.40
2022-09-04T15:00:14.861Z,5.38
2022-09-04T15:02:57.158Z,4.80
2022-09-04T15:05:30.610Z,4.90
2022-09-04T15:08:01.189Z,5.73
2022-09-04T15:10:49.887Z,5.10
2022-09-04T15:13:17.024Z,5.50
2022-09-04T15:15:59.518Z,4.97
2022-09-04T15:18:31.720Z,5.00
2022-09-04T15:21:04.151Z,5.32
2022-09-04T15:23:55.030Z,5.30
2022-09-04T15:26:42.356Z,5.68
2022-09-04T15:29:25.915Z,4.93
2022-09-04T15:32:03.923Z,5.50
2022-09-04T15:34:34.426Z,5.15
2022-09-04T15:37:13.505Z,4.75
2022-09-04T15:39:51.443Z,5.10
2022-09-04T15:42:39.775Z,4.80
2022-09-04T15:45:17.151Z,4.90
2022-09-04T15:47:53.944Z,5.20
2022-09-04T15:50:28.404Z,4.82
2022-09-04T15:53:02.468Z,5.00
2022-09-04T15:55:34.896Z,4.95
2022-09-04T15:58:29.629Z,5.10
2022-09-04T16:01:08.940Z,5.30
2022-09-04T16:03:40.551Z,5.10
2022-09-04T16:06:19.488Z,5.47
2022-09-04T16:08:54.767Z,5.22
2022-09-04T16:11:27.668Z,5.85
2022-09-04T16:14:11.719Z,5.13
2022-09-04T16:16:44.838Z,5.30
2022-09-04T16:19:33.204Z,5.70
2022-09-04T16:22:06.431Z,5.20
2022-09-04T16:24:42.385Z,5.72
2022-09-04T16:27:16.179Z,5.88
2022-09-04T16:29:57.665Z,6.20
2022-09-04T16:32:29.182Z,5.63
2022-09-04T16:35:19.384Z,5.97
2022-09-04T16:37:59.581Z,5.85
2022-09-04T16:40:33.031Z,5.65
2022-09-04T16:43:35.797Z,6.13
2022-09-04T16:46:27.835Z,6.57
2022-09-04T16:49:20.092Z,6.35
2022-09-04T16:51:58.168Z,6.25
2022-09-04T16:54:38.232Z,6.25
2022-09-04T16:57:15.221Z,5.95
2022-09-04T16:59:46.396Z,6.20
2022-09-04T17:02:36.113Z,5.68
2022-09-04T17:05:35.268Z,6.38
2022-09-04T17:08:11.569Z,6.28
2022-09-04T17:10:58.362Z,6.50
2022-09-04T17:13:44.059Z,6.22
2022-09-04T17:16:19.217Z,6.50
2022-09-04T17:18:50.299Z,6.43
2022-09-04T17:27:11.717Z,6.47
2022-09-04T17:28:55.988Z,7.30
2022-09-04T17:29:10.109Z,7.45
2022-09-04T17:30:53.212Z,7.05
2022-09-04T17:36:45.137Z,7.53
2022-09-04T17:40:37.146Z,7.28
2022-09-04T17:40:55.091Z,7.25
2022-09-04T17:43:15.759Z,7.90
2022-09-04T17:45:51.661Z,8.20
2022-09-04T17:48:24.580Z,8.05
2022-09-04T17:51:03.033Z,7.95
2022-09-04T17:53:34.849Z,8.55
2022-09-04T17:56:08.333Z,8.32
2022-09-04T17:58:44.078Z,8.85
2022-09-04T18:01:34.261Z,8.90
2022-09-04T18:04:40.326Z,8.63
2022-09-04T18:08:07.666Z,8.77
2022-09-04T18:10:39.665Z,9.40
2022-09-04T18:13:42.985Z,9.90
2022-09-04T18:16:18.370Z,9.10
2022-09-04T18:18:56.117Z,9.13
2022-09-04T18:21:27.101Z,9.02
2022-09-04T18:24:02.223Z,9.20
2022-09-04T18:26:41.183Z,9.15
2022-09-04T18:33:23.913Z,9.48
2022-09-04T18:37:20.964Z,8.80
2022-09-04T18:37:20.965Z,8.43
2022-09-04T18:38:33.114Z,9.15
2022-09-04T18:44:47.920Z,9.23
2022-09-04T18:50:25.015Z,8.50
2022-09-04T18:50:52.091Z,8.77
2022-09-04T18:51:03.352Z,8.55
2022-09-04T18:53:36.450Z,8.68
2022-09-04T18:56:20.199Z,8.63
2022-09-04T18:59:00.290Z,8.27
2022-09-04T19:01:47.968Z,8.93
2022-09-04T19:04:19.307Z,8.07
2022-09-04T19:06:59.550Z,7.97
2022-09-04T19:09:58.897Z,8.32
2022-09-04T19:12:46.651Z,8.13
2022-09-04T19:15:36.845Z,8.55
2022-09-04T19:18:30.526Z,8.48
2022-09-04T19:21:01.259Z,8.48
2022-09-04T19:23:36.550Z,8.68
2022-09-04T19:26:20.002Z,8.95
2022-09-04T19:28:57.229Z,8.73
2022-09-04T19:31:31.078Z,8.30
2022-09-04T19:34:04.702Z,9.45
2022-09-04T19:36:40.986Z,9.43
2022-09-04T19:46:01.428Z,8.63
2022-09-04T19:46:05.196Z,9.90
2022-09-04T19:46:12.321Z,8.93
2022-09-04T19:52:10.525Z,10.23
2022-09-04T19:53:33.928Z,9.30
2022-09-04T19:55:34.315Z,9.80
2022-09-04T19:58:09.373Z,9.80
2022-09-04T20:00:46.682Z,8.68
2022-09-04T20:03:30.080Z,8.90
2022-09-04T20:06:21.679Z,8.57
2022-09-04T20:08:51.457Z,8.63
2022-09-04T20:11:35.781Z,8.98
2022-09-04T20:14:14.265Z,8.95
2022-09-04T20:16:49.444Z,8.65
2022-09-04T20:19:28.568Z,9.43
2022-09-04T20:22:03.693Z,8.23
2022-09-04T20:25:01.219Z,8.75
2022-09-04T20:27:33.512Z,8.77
2022-09-04T20:30:24.728Z,9.05
2022-09-04T20:33:21.584Z,7.93
2022-09-04T20:36:04.874Z,8.75
2022-09-04T20:39:03.058Z,8.38
2022-09-04T20:41:35.925Z,9.15
2022-09-04T20:44:53.849Z,8.18
2022-09-04T20:52:49.130Z,8.25
2022-09-04T20:52:49.953Z,8.20
2022-09-04T20:53:48.729Z,8.85
2022-09-04T20:56:17.137Z,8.05
2022-09-04T21:03:10.665Z,8.48
2022-09-04T21:03:23.361Z,9.00
2022-09-04T21:05:47.977Z,7.90
2022-09-04T21:08:38.487Z,8.45
2022-09-04T21:11:40.571Z,8.27
2022-09-04T21:14:36.551Z,9.15
2022-09-04T21:17:49.244Z,8.43
2022-09-04T21:20:27.267Z,8.18
2022-09-04T21:23:17.587Z,8.75
2022-09-04T21:26:00.098Z,8.57
2022-09-04T21:28:54.119Z,9.43
2022-09-04T21:31:48.833Z,8.40
2022-09-04T21:34:17.032Z,8.80
2022-09-04T21:36:54.816Z,8.20
2022-09-04T21:39:45.565Z,8.80
2022-09-04T21:42:32.642Z,8.70
2022-09-04T21:45:20.815Z,8.13
2022-09-04T21:48:02.856Z,9.00
2022-09-04T21:51:17.047Z,9.23
2022-09-04T21:55:09.891Z,9.38
2022-09-04T22:02:32.245Z,8.60
2022-09-04T22:02:37.641Z,8.93
2022-09-04T22:03:45.218Z,8.65
2022-09-04T22:06:31.360Z,9.30
2022-09-04T22:13:31.817Z,9.45
2022-09-04T22:13:37.508Z,9.40
2022-09-04T22:15:16.632Z,8.20
2022-09-04T22:18:03.817Z,8.25
2022-09-04T22:20:51.182Z,9.35
2022-09-04T22:23:33.538Z,8.40
2022-09-04T22:26:29.446Z,8.20
2022-09-04T22:29:01.136Z,7.80
2022-09-04T22:32:03.078Z,7.82
2022-09-04T22:34:33.057Z,8.10
2022-09-04T22:37:20.175Z,8.52
2022-09-04T22:40:14.731Z,8.02
2022-09-04T22:42:46.969Z,8.30
2022-09-04T22:45:17.685Z,8.60
2022-09-04T22:48:13.275Z,8.18
2022-09-04T22:51:06.522Z,8.30
2022-09-04T22:54:02.302Z,7.45
2022-09-04T22:56:36.630Z,9.00
2022-09-04T22:59:26.765Z,7.97
2022-09-04T23:03:06.655Z,8.02
2022-09-04T23:06:01.091Z,8.43
2022-09-04T23:13:50.443Z,9.40
2022-09-04T23:13:58.565Z,9.75
2022-09-04T23:15:48.203Z,9.60
2022-09-04T23:22:35.524Z,9.20
2022-09-04T23:26:38.681Z,10.02
2022-09-04T23:26:48.451Z,9.82
2022-09-04T23:28:27.748Z,8.52
2022-09-04T23:31:29.688Z,8.65
2022-09-04T23:34:13.926Z,9.55
2022-09-04T23:36:49.896Z,8.55
2022-09-04T23:39:47.273Z,8.57
2022-09-04T23:42:14.352Z,7.63
2022-09-04T23:45:04.800Z,7.53
2022-09-04T23:47:48.459Z,7.43
2022-09-04T23:50:26.472Z,7.28
2022-09-04T23:53:04.384Z,7.45
2022-09-04T23:55:54.685Z,6.65
2022-09-04T23:59:01.569Z,6.82
